createdAt,value
2023-05-15T00:00:13.242Z,15.12
2023-05-15T00:02:46.003Z,15.09
2023-05-15T00:05:18.804Z,15.10
2023-05-15T00:07:48.934Z,15.14
2023-05-15T00:10:19.211Z,15.15
2023-05-15T00:12:49.332Z,15.15
2023-05-15T00:15:19.597Z,15.16
2023-05-15T00:17:49.759Z,15.16
2023-05-15T00:20:22.709Z,15.18
2023-05-15T00:22:53.012Z,15.16
2023-05-15T00:25:23.556Z,15.18
2023-05-15T00:27:53.854Z,15.18
2023-05-15T00:30:24.226Z,15.15
2023-05-15T00:32:54.367Z,15.14
2023-05-15T00:35:27.346Z,15.12
2023-05-15T00:37:57.398Z,15.07
2023-05-15T00:40:27.891Z,15.07
2023-05-15T00:42:58.898Z,15.09
2023-05-15T00:45:29.840Z,15.07
2023-05-15T00:48:01.253Z,15.03
2023-05-15T00:50:36.282Z,15.00
2023-05-15T00:53:08.633Z,14.98
2023-05-15T00:55:39.216Z,14.95
2023-05-15T00:58:09.758Z,14.94
2023-05-15T01:00:40.101Z,14.94
2023-05-15T01:03:10.790Z,14.90
2023-05-15T01:05:43.624Z,14.89
2023-05-15T01:08:19.216Z,14.84
2023-05-15T01:10:51.026Z,14.75
2023-05-15T01:13:23.217Z,14.71
2023-05-15T01:15:53.601Z,14.70
2023-05-15T01:18:23.844Z,14.69
2023-05-15T01:21:23.346Z,14.62
2023-05-15T01:24:06.155Z,14.56
2023-05-15T01:26:52.246Z,14.49
2023-05-15T01:29:29.115Z,14.44
2023-05-15T01:32:06.514Z,14.40
2023-05-15T01:34:47.149Z,14.32
2023-05-15T01:37:23.948Z,14.25
2023-05-15T01:39:57.327Z,14.21
2023-05-15T01:42:32.987Z,14.14
2023-05-15T01:45:08.718Z,14.06
2023-05-15T01:47:42.684Z,14.01
2023-05-15T01:50:16.521Z,13.95
2023-05-15T01:52:49.850Z,13.89
2023-05-15T01:55:20.860Z,13.83
2023-05-15T01:57:52.425Z,13.76
2023-05-15T02:00:25.627Z,13.75
2023-05-15T02:02:56.366Z,13.72
2023-05-15T02:05:27.339Z,13.67
2023-05-15T02:07:58.277Z,13.61
2023-05-15T02:10:29.318Z,13.49
2023-05-15T02:12:59.815Z,13.48
2023-05-15T02:15:32.961Z,13.42
2023-05-15T02:18:03.337Z,13.25
2023-05-15T02:20:34.177Z,13.21
2023-05-15T02:23:04.331Z,13.21
2023-05-15T02:25:40.890Z,13.23
2023-05-15T02:28:14.100Z,13.21
2023-05-15T02:30:58.823Z,13.21
2023-05-15T02:33:34.975Z,13.19
2023-05-15T02:36:08.512Z,13.14
2023-05-15T02:38:42.351Z,13.11
2023-05-15T02:41:13.095Z,13.11
2023-05-15T02:43:43.592Z,13.13
2023-05-15T02:46:17.944Z,13.08
2023-05-15T02:48:49.240Z,13.08
2023-05-15T02:51:19.438Z,13.07
2023-05-15T02:53:49.715Z,13.05
2023-05-15T02:56:19.904Z,13.03
2023-05-15T02:58:50.094Z,13.00
2023-05-15T03:01:22.895Z,12.99
2023-05-15T03:03:53.110Z,13.00
2023-05-15T03:06:23.318Z,12.96
2023-05-15T03:08:53.501Z,12.89
2023-05-15T03:11:23.701Z,12.86
2023-05-15T03:13:53.805Z,12.85
2023-05-15T03:16:26.744Z,12.83
2023-05-15T03:18:57.083Z,12.82
2023-05-15T03:21:27.245Z,12.79
2023-05-15T03:23:57.329Z,12.78
2023-05-15T03:26:27.451Z,12.76
2023-05-15T03:28:58.264Z,12.77
2023-05-15T03:31:31.114Z,12.77
2023-05-15T03:34:01.284Z,12.79
2023-05-15T03:36:31.704Z,12.80
2023-05-15T03:39:01.864Z,12.86
2023-05-15T03:41:32.008Z,12.84
2023-05-15T03:44:03.764Z,12.84
2023-05-15T03:46:36.596Z,12.88
2023-05-15T03:49:06.881Z,12.85
2023-05-15T03:51:37.970Z,12.86
2023-05-15T03:54:08.589Z,12.89
2023-05-15T03:56:38.828Z,12.84
2023-05-15T03:59:09.008Z,12.88
2023-05-15T04:01:55.334Z,12.91
2023-05-15T04:04:31.808Z,12.93
2023-05-15T04:07:02.038Z,12.93
2023-05-15T04:09:32.152Z,12.91
2023-05-15T04:12:02.332Z,12.91
2023-05-15T04:14:32.410Z,12.98
2023-05-15T04:17:05.137Z,13.00
2023-05-15T04:19:35.257Z,13.03
2023-05-15T04:22:05.547Z,13.07
2023-05-15T04:24:35.685Z,13.13
2023-05-15T04:27:05.899Z,13.18
2023-05-15T04:29:36.081Z,13.28
2023-05-15T04:32:08.951Z,13.35
2023-05-15T04:34:47.188Z,13.42
2023-05-15T04:37:19.699Z,13.48
2023-05-15T04:39:50.005Z,13.56
2023-05-15T04:42:20.270Z,13.59
2023-05-15T04:44:50.456Z,13.63
2023-05-15T04:47:23.387Z,13.71
2023-05-15T04:49:53.521Z,13.77
2023-05-15T04:52:23.778Z,13.85
2023-05-15T04:54:55.998Z,13.94
2023-05-15T04:57:26.457Z,14.04
2023-05-15T04:59:58.295Z,14.14
2023-05-15T05:02:31.179Z,14.26
2023-05-15T05:05:01.376Z,14.29
2023-05-15T05:07:31.516Z,14.25
2023-05-15T05:10:01.672Z,14.32
2023-05-15T05:12:31.865Z,14.38
2023-05-15T05:15:01.978Z,14.44
2023-05-15T05:17:34.971Z,14.52
2023-05-15T05:20:05.124Z,14.52
2023-05-15T05:22:35.256Z,14.64
2023-05-15T05:25:05.379Z,14.77
2023-05-15T05:27:35.559Z,14.54
2023-05-15T05:30:06.117Z,14.74
2023-05-15T05:32:38.858Z,14.86
2023-05-15T05:35:09.438Z,14.95
2023-05-15T05:37:41.292Z,15.10
2023-05-15T05:40:13.100Z,14.98
2023-05-15T05:42:43.196Z,14.93
2023-05-15T05:45:14.510Z,14.74
2023-05-15T05:47:47.309Z,14.58
2023-05-15T05:50:17.483Z,14.73
2023-05-15T05:52:47.590Z,14.77
2023-05-15T05:55:17.848Z,14.87
2023-05-15T05:57:47.986Z,15.08
2023-05-15T06:00:19.159Z,15.18
2023-05-15T06:02:51.936Z,15.16
2023-05-15T06:05:23.516Z,15.36
2023-05-15T06:07:54.163Z,15.50
2023-05-15T06:10:25.024Z,15.63
2023-05-15T06:12:55.471Z,15.99
2023-05-15T06:15:26.618Z,16.04
2023-05-15T06:17:59.683Z,16.23
2023-05-15T06:20:30.491Z,16.48
2023-05-15T06:23:00.728Z,16.74
2023-05-15T06:25:30.954Z,16.75
2023-05-15T06:28:01.297Z,16.71
2023-05-15T06:30:31.536Z,16.86
2023-05-15T06:33:04.395Z,17.05
2023-05-15T06:35:34.581Z,17.06
2023-05-15T06:38:04.766Z,17.28
2023-05-15T06:40:34.997Z,17.35
2023-05-15T06:43:05.171Z,17.42
2023-05-15T06:45:35.375Z,17.49
2023-05-15T06:48:08.534Z,17.52
2023-05-15T06:50:38.725Z,17.64
2023-05-15T06:53:08.883Z,17.75
2023-05-15T06:55:39.050Z,17.93
2023-05-15T06:58:09.195Z,18.01
2023-05-15T07:00:39.429Z,18.00
2023-05-15T07:03:14.525Z,18.15
2023-05-15T07:05:44.694Z,18.31
2023-05-15T07:08:14.749Z,18.39
2023-05-15T07:10:44.914Z,18.11
2023-05-15T07:13:15.053Z,18.09
2023-05-15T07:15:45.169Z,18.12
2023-05-15T07:18:18.216Z,18.24
2023-05-15T07:20:48.420Z,18.46
2023-05-15T07:23:18.970Z,18.36
2023-05-15T07:25:49.331Z,18.44
2023-05-15T07:28:19.431Z,18.82
2023-05-15T07:30:49.902Z,19.21
2023-05-15T07:33:22.842Z,19.42
2023-05-15T07:35:53.848Z,19.67
2023-05-15T07:38:24.302Z,19.83
2023-05-15T07:40:54.537Z,20.26
2023-05-15T07:43:24.643Z,20.38
2023-05-15T07:45:54.873Z,20.30
2023-05-15T07:48:27.674Z,20.29
2023-05-15T07:50:58.146Z,20.40
2023-05-15T07:53:28.438Z,20.27
2023-05-15T07:55:58.613Z,20.24
2023-05-15T07:58:28.923Z,20.49
2023-05-15T08:00:59.079Z,20.54
2023-05-15T08:03:32.115Z,20.81
2023-05-15T08:06:02.571Z,20.93
2023-05-15T08:08:32.688Z,21.38
2023-05-15T08:11:02.864Z,21.59
2023-05-15T08:13:32.979Z,21.77
2023-05-15T08:16:03.137Z,22.07
2023-05-15T08:18:35.939Z,22.13
2023-05-15T08:21:06.158Z,22.18
2023-05-15T08:23:36.319Z,22.19
2023-05-15T08:26:06.671Z,22.09
2023-05-15T08:28:36.853Z,21.93
2023-05-15T08:31:07.365Z,22.05
2023-05-15T08:33:40.182Z,22.65
2023-05-15T08:36:11.421Z,22.98
2023-05-15T08:38:41.569Z,23.20
2023-05-15T08:41:39.432Z,23.19
2023-05-15T08:44:12.129Z,22.71
2023-05-15T08:46:42.340Z,22.88
2023-05-15T08:49:19.437Z,22.95
2023-05-15T08:51:49.920Z,22.83
2023-05-15T08:54:20.087Z,22.90
2023-05-15T08:56:50.244Z,22.60
2023-05-15T08:59:20.508Z,22.62
2023-05-15T09:01:50.878Z,22.34
2023-05-15T09:04:23.852Z,21.88
2023-05-15T09:06:54.265Z,21.89
2023-05-15T09:09:24.562Z,21.89
2023-05-15T09:11:55.350Z,22.08
2023-05-15T09:14:25.519Z,22.38
2023-05-15T09:16:56.022Z,22.41
2023-05-15T09:19:29.817Z,22.12
2023-05-15T09:22:18.141Z,21.88
2023-05-15T09:24:48.917Z,21.95
2023-05-15T09:27:19.101Z,21.77
2023-05-15T09:29:51.561Z,21.75
2023-05-15T09:32:21.870Z,21.58
2023-05-15T09:34:54.715Z,21.51
2023-05-15T09:37:32.149Z,21.68
2023-05-15T09:40:12.238Z,21.79
2023-05-15T09:42:42.384Z,22.56
2023-05-15T09:45:20.714Z,23.58
2023-05-15T09:47:51.019Z,25.08
2023-05-15T09:50:29.957Z,25.20
2023-05-15T09:53:02.423Z,24.42
2023-05-15T09:55:34.987Z,24.01
2023-05-15T09:58:10.027Z,23.68
2023-05-15T10:00:48.249Z,23.30
2023-05-15T10:03:21.161Z,22.74
2023-05-15T10:05:54.144Z,22.22
2023-05-15T10:08:30.342Z,21.77
2023-05-15T10:11:04.119Z,21.24
2023-05-15T10:13:35.591Z,21.08
2023-05-15T10:16:06.528Z,20.80
2023-05-15T10:18:37.283Z,20.91
2023-05-15T10:21:10.332Z,20.94
2023-05-15T10:23:41.397Z,20.96
2023-05-15T10:26:16.154Z,20.99
2023-05-15T10:28:47.177Z,21.02
2023-05-15T10:31:17.524Z,21.22
2023-05-15T10:33:47.908Z,21.42
2023-05-15T10:36:21.467Z,21.33
2023-05-15T10:38:52.399Z,21.41
2023-05-15T10:41:24.234Z,21.59
2023-05-15T10:43:56.666Z,21.74
2023-05-15T10:46:27.373Z,21.80
2023-05-15T10:48:57.645Z,21.80
2023-05-15T10:51:31.896Z,21.82
2023-05-15T10:54:04.309Z,21.89
2023-05-15T10:56:35.966Z,22.17
2023-05-15T10:59:12.465Z,22.51
2023-05-15T11:01:43.851Z,22.78
2023-05-15T11:04:15.291Z,22.82
2023-05-15T11:06:50.202Z,23.31
2023-05-15T11:09:38.791Z,23.43
2023-05-15T11:12:11.902Z,23.35
2023-05-15T11:14:43.545Z,23.57
2023-05-15T11:17:15.740Z,23.61
2023-05-15T11:20:00.673Z,23.71
2023-05-15T11:22:36.272Z,24.22
2023-05-15T11:25:09.317Z,24.01
2023-05-15T11:27:42.825Z,23.99
2023-05-15T11:30:18.436Z,25.17
2023-05-15T11:32:58.558Z,26.01
2023-05-15T11:35:31.110Z,27.49
2023-05-15T11:38:06.639Z,28.52
2023-05-15T11:40:47.536Z,28.45
2023-05-15T11:43:22.817Z,29.00
2023-05-15T11:45:56.377Z,28.20
2023-05-15T11:48:28.764Z,27.49
2023-05-15T11:50:58.904Z,27.21
2023-05-15T11:53:32.869Z,28.24
2023-05-15T11:56:03.074Z,28.22
2023-05-15T11:58:33.225Z,29.47
2023-05-15T12:01:03.432Z,28.79
2023-05-15T12:03:36.896Z,27.58
2023-05-15T12:06:07.848Z,27.07
2023-05-15T12:08:42.255Z,26.39
2023-05-15T12:11:13.371Z,27.44
2023-05-15T12:13:43.538Z,28.25
2023-05-15T12:16:13.774Z,26.98
2023-05-15T12:18:44.289Z,26.23
2023-05-15T12:21:16.137Z,25.37
2023-05-15T12:24:06.208Z,24.49
2023-05-15T12:26:38.730Z,24.10
2023-05-15T12:29:09.086Z,25.09
2023-05-15T12:31:39.552Z,27.40
2023-05-15T12:34:09.790Z,29.03
2023-05-15T12:36:40.020Z,29.91
2023-05-15T12:39:13.481Z,29.07
2023-05-15T12:41:43.701Z,29.57
2023-05-15T12:44:19.415Z,28.66
2023-05-15T12:46:49.621Z,26.52
2023-05-15T12:49:24.577Z,25.66
2023-05-15T12:51:54.760Z,24.79
2023-05-15T12:54:27.626Z,24.16
2023-05-15T12:57:00.716Z,23.47
2023-05-15T12:59:33.031Z,23.13
2023-05-15T13:02:04.708Z,22.83
2023-05-15T13:04:36.137Z,22.66
2023-05-15T13:07:06.436Z,22.25
2023-05-15T13:09:39.216Z,22.05
2023-05-15T13:12:10.195Z,21.90
2023-05-15T13:14:40.464Z,21.89
2023-05-15T13:17:11.279Z,22.13
2023-05-15T13:19:41.388Z,22.80
2023-05-15T13:22:11.523Z,24.06
2023-05-15T13:24:48.636Z,26.12
2023-05-15T13:27:18.749Z,26.19
2023-05-15T13:29:48.882Z,26.02
2023-05-15T13:32:19.016Z,25.96
2023-05-15T13:34:49.193Z,26.97
2023-05-15T13:37:19.316Z,29.27
2023-05-15T13:39:52.060Z,30.44
2023-05-15T13:42:22.759Z,31.02
2023-05-15T13:44:53.091Z,31.62
2023-05-15T13:47:23.318Z,29.90
2023-05-15T13:49:53.534Z,27.24
2023-05-15T13:52:24.131Z,25.81
2023-05-15T13:54:56.976Z,24.85
2023-05-15T13:57:27.172Z,24.17
2023-05-15T13:59:57.284Z,23.71
2023-05-15T14:02:28.938Z,23.41
2023-05-15T14:04:59.292Z,23.12
2023-05-15T14:07:29.471Z,23.01
2023-05-15T14:10:02.300Z,22.91
2023-05-15T14:12:32.627Z,22.74
2023-05-15T14:15:03.010Z,22.67
2023-05-15T14:17:33.980Z,22.65
2023-05-15T14:20:05.126Z,22.53
2023-05-15T14:22:35.437Z,22.46
2023-05-15T14:25:09.689Z,22.50
2023-05-15T14:27:40.257Z,22.54
2023-05-15T14:30:11.968Z,22.61
2023-05-15T14:32:42.173Z,22.51
2023-05-15T14:35:12.446Z,22.61
2023-05-15T14:37:43.405Z,22.75
2023-05-15T14:40:16.985Z,23.03
2023-05-15T14:42:47.119Z,24.74
2023-05-15T14:45:17.327Z,26.15
2023-05-15T14:47:47.542Z,27.81
2023-05-15T14:50:20.346Z,28.55
2023-05-15T14:52:50.423Z,28.83
2023-05-15T14:55:24.744Z,29.36
2023-05-15T14:57:54.890Z,29.55
2023-05-15T15:00:25.467Z,29.78
2023-05-15T15:02:55.874Z,29.73
2023-05-15T15:05:26.139Z,29.37
2023-05-15T15:08:04.196Z,29.07
2023-05-15T15:10:38.097Z,28.71
2023-05-15T15:13:10.351Z,28.29
2023-05-15T15:15:40.838Z,27.89
2023-05-15T15:18:11.007Z,27.58
2023-05-15T15:20:41.348Z,26.97
2023-05-15T15:23:11.714Z,26.39
2023-05-15T15:25:44.548Z,25.29
2023-05-15T15:28:14.661Z,24.87
2023-05-15T15:30:44.876Z,24.42
2023-05-15T15:33:15.020Z,23.91
2023-05-15T15:35:45.149Z,23.32
2023-05-15T15:38:15.226Z,22.63
2023-05-15T15:40:48.033Z,22.24
2023-05-15T15:43:18.174Z,21.83
2023-05-15T15:45:48.313Z,21.71
2023-05-15T15:48:19.141Z,21.47
2023-05-15T15:50:49.408Z,21.29
2023-05-15T15:53:19.507Z,21.23
2023-05-15T15:55:52.492Z,21.10
2023-05-15T15:58:22.688Z,21.14
2023-05-15T16:00:52.789Z,20.95
2023-05-15T16:03:23.303Z,20.89
2023-05-15T16:05:53.471Z,20.87
2023-05-15T16:08:23.671Z,20.82
2023-05-15T16:10:56.855Z,20.88
2023-05-15T16:13:26.938Z,20.90
2023-05-15T16:15:57.034Z,20.97
2023-05-15T16:18:27.418Z,20.96
2023-05-15T16:20:57.579Z,21.05
2023-05-15T16:23:27.663Z,20.97
2023-05-15T16:26:00.396Z,20.87
2023-05-15T16:28:30.610Z,20.84
2023-05-15T16:31:01.945Z,20.73
2023-05-15T16:33:32.359Z,20.71
2023-05-15T16:36:05.326Z,20.76
2023-05-15T16:38:35.540Z,20.76
2023-05-15T16:41:08.445Z,20.77
2023-05-15T16:43:41.518Z,20.83
2023-05-15T16:46:11.823Z,20.82
2023-05-15T16:48:41.973Z,20.83
2023-05-15T16:51:12.104Z,20.87
2023-05-15T16:53:42.661Z,20.72
2023-05-15T16:56:15.513Z,20.63
2023-05-15T16:58:46.023Z,20.64
2023-05-15T17:01:16.230Z,20.53
2023-05-15T17:03:46.674Z,20.47
2023-05-15T17:06:17.317Z,20.39
2023-05-15T17:08:47.452Z,20.44
2023-05-15T17:11:20.236Z,20.38
2023-05-15T17:13:50.379Z,20.40
2023-05-15T17:16:20.579Z,20.37
2023-05-15T17:18:50.888Z,20.35
2023-05-15T17:21:21.052Z,20.17
2023-05-15T17:23:51.176Z,20.13
2023-05-15T17:26:24.529Z,20.08
2023-05-15T17:28:54.626Z,20.03
2023-05-15T17:31:24.788Z,19.95
2023-05-15T17:33:54.884Z,19.93
2023-05-15T17:36:25.001Z,19.77
2023-05-15T17:38:55.162Z,19.74
2023-05-15T17:41:28.049Z,19.69
2023-05-15T17:43:58.249Z,19.63
2023-05-15T17:46:28.529Z,19.54
2023-05-15T17:48:58.802Z,19.36
2023-05-15T17:51:28.942Z,19.27
2023-05-15T17:53:59.182Z,19.26
2023-05-15T17:56:31.938Z,19.12
2023-05-15T17:59:02.080Z,19.07
2023-05-15T18:01:32.336Z,19.01
2023-05-15T18:04:02.599Z,18.93
2023-05-15T18:06:34.399Z,18.87
2023-05-15T18:09:05.341Z,18.92
2023-05-15T18:11:38.267Z,18.89
2023-05-15T18:14:08.375Z,18.88
2023-05-15T18:16:38.531Z,18.81
2023-05-15T18:19:08.815Z,18.68
2023-05-15T18:21:39.020Z,18.57
2023-05-15T18:24:09.834Z,18.54
2023-05-15T18:26:42.706Z,18.45
2023-05-15T18:29:12.922Z,18.26
2023-05-15T18:31:43.161Z,18.33
2023-05-15T18:34:13.342Z,18.23
2023-05-15T18:36:43.473Z,18.19
2023-05-15T18:39:15.782Z,18.11
2023-05-15T18:41:48.500Z,18.02
2023-05-15T18:44:18.644Z,17.89
2023-05-15T18:46:48.840Z,17.80
2023-05-15T18:49:19.075Z,17.81
2023-05-15T18:51:49.240Z,17.84
2023-05-15T18:54:19.392Z,17.88
2023-05-15T18:56:52.260Z,17.86
2023-05-15T18:59:23.604Z,17.89
2023-05-15T19:01:54.070Z,17.91
2023-05-15T19:04:24.442Z,17.91
2023-05-15T19:06:54.790Z,17.98
2023-05-15T19:09:24.893Z,17.97
2023-05-15T19:11:57.992Z,17.98
2023-05-15T19:14:28.480Z,17.98
2023-05-15T19:16:58.671Z,17.98
2023-05-15T19:19:28.948Z,17.92
2023-05-15T19:21:59.076Z,17.88
2023-05-15T19:24:30.367Z,17.74
2023-05-15T19:27:04.250Z,17.75
2023-05-15T19:29:34.866Z,17.73
2023-05-15T19:32:05.730Z,17.79
2023-05-15T19:34:36.351Z,17.73
2023-05-15T19:37:06.523Z,17.70
2023-05-15T19:39:36.612Z,17.67
2023-05-15T19:42:09.668Z,17.67
2023-05-15T19:44:39.791Z,17.70
2023-05-15T19:47:10.734Z,17.68
2023-05-15T19:49:40.924Z,17.56
2023-05-15T19:52:11.040Z,17.43
2023-05-15T19:54:41.136Z,17.47
2023-05-15T19:57:13.909Z,17.59
2023-05-15T19:59:44.000Z,17.38
2023-05-15T20:02:14.295Z,17.27
2023-05-15T20:04:44.481Z,17.19
2023-05-15T20:07:14.605Z,17.17
2023-05-15T20:09:44.900Z,17.10
2023-05-15T20:12:17.608Z,16.93
2023-05-15T20:14:52.557Z,16.92
2023-05-15T20:17:22.780Z,16.79
2023-05-15T20:19:53.234Z,16.70
2023-05-15T20:22:23.753Z,16.60
2023-05-15T20:24:54.165Z,16.51
2023-05-15T20:27:27.018Z,16.49
2023-05-15T20:29:57.321Z,16.36
2023-05-15T20:32:27.705Z,16.27
2023-05-15T20:34:58.145Z,16.28
2023-05-15T20:37:28.411Z,16.38
2023-05-15T20:39:58.793Z,16.34
2023-05-15T20:42:32.593Z,16.23
2023-05-15T20:45:02.849Z,16.22
2023-05-15T20:47:33.096Z,16.25
2023-05-15T20:50:03.597Z,16.31
2023-05-15T20:52:33.753Z,16.22
2023-05-15T20:55:04.564Z,16.27
2023-05-15T20:57:37.504Z,16.30
2023-05-15T21:00:09.293Z,16.32
2023-05-15T21:02:39.732Z,16.12
2023-05-15T21:05:11.226Z,16.06
2023-05-15T21:07:41.797Z,16.20
2023-05-15T21:10:12.408Z,16.18
2023-05-15T21:12:45.217Z,16.11
2023-05-15T21:15:15.341Z,15.96
2023-05-15T21:17:45.605Z,15.77
2023-05-15T21:20:15.979Z,15.93
2023-05-15T21:22:46.173Z,16.01
2023-05-15T21:25:19.286Z,15.92
2023-05-15T21:27:52.137Z,15.91
2023-05-15T21:30:22.540Z,15.83
2023-05-15T21:32:52.761Z,15.88
2023-05-15T21:35:23.036Z,15.80
2023-05-15T21:37:53.310Z,15.97
2023-05-15T21:40:23.422Z,16.12
2023-05-15T21:42:56.196Z,16.15
2023-05-15T21:45:26.455Z,16.26
2023-05-15T21:47:56.740Z,16.08
2023-05-15T21:50:28.867Z,15.98
2023-05-15T21:52:59.302Z,15.97
2023-05-15T21:55:29.507Z,15.92
2023-05-15T21:58:02.376Z,16.03
2023-05-15T22:00:32.484Z,15.97
2023-05-15T22:03:02.846Z,15.95
2023-05-15T22:05:33.021Z,15.91
2023-05-15T22:08:03.151Z,15.79
2023-05-15T22:10:33.272Z,15.76
2023-05-15T22:13:06.092Z,15.83
2023-05-15T22:15:36.459Z,15.61
2023-05-15T22:18:07.155Z,15.42
2023-05-15T22:20:38.104Z,15.18
2023-05-15T22:23:08.441Z,15.01
2023-05-15T22:25:38.585Z,14.94
2023-05-15T22:28:11.353Z,14.94
2023-05-15T22:30:41.745Z,14.88
2023-05-15T22:33:11.984Z,14.78
2023-05-15T22:35:42.131Z,14.84
2023-05-15T22:38:12.533Z,14.76
2023-05-15T22:40:44.556Z,14.79
2023-05-15T22:43:17.497Z,14.92
2023-05-15T22:45:47.743Z,14.93
2023-05-15T22:48:18.322Z,14.78
2023-05-15T22:50:48.756Z,14.71
2023-05-15T22:53:18.964Z,14.78
2023-05-15T22:55:49.336Z,14.84
2023-05-15T22:58:22.550Z,14.79
2023-05-15T23:00:52.776Z,14.89
2023-05-15T23:03:22.932Z,14.95
2023-05-15T23:05:54.586Z,14.99
2023-05-15T23:08:25.217Z,15.02
2023-05-15T23:10:56.334Z,14.99
2023-05-15T23:13:29.073Z,14.92
2023-05-15T23:15:59.297Z,14.82
2023-05-15T23:18:29.789Z,14.84
2023-05-15T23:21:00.018Z,14.73
2023-05-15T23:23:30.203Z,14.72
2023-05-15T23:26:00.341Z,14.51
2023-05-15T23:28:33.117Z,14.43
2023-05-15T23:31:03.290Z,14.39
2023-05-15T23:33:33.516Z,14.51
2023-05-15T23:36:03.795Z,14.48
2023-05-15T23:38:33.867Z,14.55
2023-05-15T23:41:04.047Z,14.72
2023-05-15T23:43:36.782Z,14.81
2023-05-15T23:46:07.239Z,14.86
2023-05-15T23:48:37.463Z,14.88
2023-05-15T23:51:07.884Z,14.93
2023-05-15T23:53:38.026Z,14.96
2023-05-15T23:56:10.013Z,14.97
2023-05-15T23:58:42.697Z,14.85
